Time;durP1;ratioP1;P1;durP2;ratioP2;P2;SDS_P1;SDS_P2;PMS_P1;PMS_P2;Temp;Humidity;BMP_temperature;BMP_pressure;BME280_temperature;BME280_humidity;BME280_pressure;Samples;Min_cycle;Max_cycle;Signal;HPM_P1;HPM_P2
2023/08/15 00:00:57;;;;;;;6.35;3.58;;;;;;;22.92;60.70;101161.44;5062644;28;20127;-62
2023/08/15 00:03:25;;;;;;;4.22;2.63;;;;;;;22.91;60.49;101155.13;5062828;27;20094;-63
2023/08/15 00:05:53;;;;;;;5.47;2.45;;;;;;;22.89;60.80;101149.13;5050085;28;20053;-63
2023/08/15 00:08:21;;;;;;;5.35;2.60;;;;;;;22.89;60.62;101143.66;5051341;28;20094;-63
2023/08/15 00:10:48;;;;;;;8.27;3.20;;;;;;;22.88;60.76;101142.03;5062462;28;20509;-63
2023/08/15 00:13:16;;;;;;;4.28;2.58;;;;;;;22.88;60.74;101133.00;5062506;27;20279;-63
2023/08/15 00:15:45;;;;;;;6.70;2.58;;;;;;;22.87;60.61;101134.09;5056433;28;20041;-63
2023/08/15 00:18:13;;;;;;;6.38;2.75;;;;;;;22.86;60.85;101129.72;5042478;28;20053;-63
2023/08/15 00:20:41;;;;;;;9.18;3.45;;;;;;;22.83;60.40;101122.91;5042526;28;20079;-62
2023/08/15 00:23:09;;;;;;;4.05;2.50;;;;;;;22.82;60.51;101132.25;5042894;28;20046;-62
2023/08/15 00:25:37;;;;;;;5.18;2.80;;;;;;;22.80;60.92;101137.22;5055950;28;20109;-62
2023/08/15 00:28:05;;;;;;;7.50;2.53;;;;;;;22.79;60.92;101140.22;5104365;28;20047;-62
2023/08/15 00:30:33;;;;;;;6.28;2.90;;;;;;;22.76;60.90;101144.38;5146647;28;20054;-63
2023/08/15 00:33:03;;;;;;;5.55;2.80;;;;;;;22.74;60.64;101141.09;5124653;28;20449;-63
2023/08/15 00:35:31;;;;;;;6.00;2.80;;;;;;;22.71;60.67;101137.03;5062419;28;20049;-63
2023/08/15 00:37:58;;;;;;;6.07;2.72;;;;;;;22.71;60.97;101149.91;5123063;28;20047;-62
2023/08/15 00:40:26;;;;;;;7.10;2.72;;;;;;;22.69;61.04;101141.19;5120086;28;20049;-63
2023/08/15 00:42:54;;;;;;;8.43;3.08;;;;;;;22.67;60.61;101148.88;5052213;28;20269;-63
2023/08/15 00:45:22;;;;;;;6.88;3.10;;;;;;;22.67;60.84;101152.44;5041808;28;20041;-63
2023/08/15 00:47:50;;;;;;;6.15;2.38;;;;;;;22.64;61.04;101160.44;5042235;28;20046;-63
2023/08/15 00:50:20;;;;;;;7.03;3.28;;;;;;;22.62;60.64;101163.47;5047344;28;20045;-63
2023/08/15 00:52:48;;;;;;;7.18;2.75;;;;;;;22.61;60.83;101167.31;5060222;28;20057;-63
2023/08/15 00:55:18;;;;;;;5.68;2.40;;;;;;;22.59;60.71;101165.97;5041928;28;20045;-63
2023/08/15 00:57:46;;;;;;;9.75;2.80;;;;;;;22.58;60.97;101170.63;5042138;28;20057;-64
2023/08/15 01:00:16;;;;;;;6.45;3.03;;;;;;;22.57;60.78;101163.53;5042326;28;20045;-63
2023/08/15 01:02:44;;;;;;;5.40;2.72;;;;;;;22.55;60.40;101157.53;5043564;28;20132;-63
2023/08/15 01:05:15;;;;;;;8.23;2.60;;;;;;;22.54;60.52;101163.31;5054857;28;20069;-63
2023/08/15 01:07:45;;;;;;;8.73;3.00;;;;;;;22.50;60.21;101162.28;5044577;28;20136;-62
2023/08/15 01:10:13;;;;;;;6.97;2.50;;;;;;;22.50;60.29;101165.84;5044754;28;20053;-63
2023/08/15 01:12:47;;;;;;;5.97;2.75;;;;;;;22.47;59.92;101151.94;5064956;28;20048;-63
2023/08/15 01:15:19;;;;;;;6.78;2.70;;;;;;;22.45;60.17;101146.75;5065222;28;20394;-62
2023/08/15 01:17:54;;;;;;;7.82;2.90;;;;;;;22.43;59.88;101143.47;5065248;28;20106;-63
2023/08/15 01:20:28;;;;;;;8.43;3.00;;;;;;;22.40;59.79;101138.59;5045620;28;20076;-62
2023/08/15 01:23:00;;;;;;;5.45;2.83;;;;;;;22.38;59.85;101146.28;5045499;28;20053;-62
2023/08/15 01:25:32;;;;;;;6.85;2.58;;;;;;;22.37;60.05;101148.22;5045806;28;20056;-62
2023/08/15 01:27:59;;;;;;;4.85;2.45;;;;;;;22.36;59.53;101160.28;5103623;27;20043;-63
2023/08/15 01:30:27;;;;;;;6.80;2.50;;;;;;;22.35;59.62;101161.38;5127035;27;20045;-63
2023/08/15 01:33:04;;;;;;;5.32;2.08;;;;;;;22.33;59.50;101165.50;5065024;28;20041;-63
2023/08/15 01:35:39;;;;;;;8.73;3.17;;;;;;;22.31;59.04;101176.75;5065119;28;20045;-63
2023/08/15 01:38:13;;;;;;;7.20;2.15;;;;;;;22.29;59.17;101187.19;5049290;28;20050;-62
2023/08/15 01:40:43;;;;;;;7.20;2.30;;;;;;;22.27;59.29;101192.16;5044190;28;20054;-62
2023/08/15 01:43:14;;;;;;;5.82;2.60;;;;;;;22.28;59.17;101206.66;5044646;28;20422;-62
2023/08/15 01:45:42;;;;;;;7.45;2.47;;;;;;;22.25;59.23;101205.31;5044880;28;20093;-62
2023/08/15 01:48:10;;;;;;;4.30;2.10;;;;;;;22.25;59.18;101210.78;5044470;28;20048;-63
2023/08/15 01:50:38;;;;;;;10.07;2.83;;;;;;;22.24;59.03;101208.34;5044870;28;20049;-63
2023/08/15 01:53:06;;;;;;;7.07;2.35;;;;;;;22.23;59.02;101209.44;5044649;28;20049;-63
2023/08/15 01:55:34;;;;;;;6.43;2.63;;;;;;;22.22;58.71;101211.38;5044267;28;20071;-63
2023/08/15 01:58:03;;;;;;;7.85;2.60;;;;;;;22.21;58.81;101214.41;5044748;28;20053;-63
2023/08/15 02:00:31;;;;;;;7.68;2.13;;;;;;;22.19;58.91;101217.44;5044853;28;20050;-63
2023/08/15 02:02:59;;;;;;;7.40;2.60;;;;;;;22.18;58.88;101214.97;5044632;28;20075;-63
2023/08/15 02:05:27;;;;;;;8.10;2.15;;;;;;;22.16;58.89;101226.22;5044675;28;20125;-63
2023/08/15 02:07:55;;;;;;;11.10;3.53;;;;;;;22.14;58.84;101228.44;5044318;28;20109;-62
2023/08/15 02:10:22;;;;;;;5.97;2.67;;;;;;;22.14;58.99;101222.16;5044259;28;20061;-63
2023/08/15 02:12:50;;;;;;;6.63;2.30;;;;;;;22.12;58.75;101213.41;5044585;28;20046;-62
2023/08/15 02:15:19;;;;;;;5.75;2.80;;;;;;;22.11;58.85;101219.97;5044134;28;20049;-62
2023/08/15 02:17:47;;;;;;;9.00;2.60;;;;;;;22.10;59.05;101229.31;5050026;28;20090;-62
2023/08/15 02:20:15;;;;;;;6.78;2.17;;;;;;;22.09;58.65;101242.16;5064438;28;20052;-62
2023/08/15 02:22:43;;;;;;;5.15;2.03;;;;;;;22.06;58.94;101243.56;5063983;28;20482;-63
2023/08/15 02:25:11;;;;;;;6.57;2.13;;;;;;;22.03;58.62;101252.34;5043486;28;20057;-63
2023/08/15 02:27:39;;;;;;;6.32;2.80;;;;;;;22.02;58.83;101250.72;5087953;27;20100;-62
2023/08/15 02:30:08;;;;;;;5.40;2.20;;;;;;;22.01;58.75;101250.97;5148699;27;20051;-62
2023/08/15 02:32:37;;;;;;;6.88;2.25;;;;;;;22.00;59.00;101249.34;5144342;27;20083;-62
2023/08/15 02:35:06;;;;;;;9.18;2.83;;;;;;;21.97;58.81;101239.78;5045154;28;20045;-62
2023/08/15 02:37:34;;;;;;;6.72;2.20;;;;;;;21.97;58.84;101238.97;5101418;27;20054;-62
2023/08/15 02:40:05;;;;;;;5.32;2.42;;;;;;;21.95;58.95;101232.97;5045414;28;20050;-62
2023/08/15 02:42:33;;;;;;;7.45;2.13;;;;;;;21.94;58.95;101228.59;5044100;28;20053;-62
2023/08/15 02:45:01;;;;;;;7.15;2.25;;;;;;;21.92;58.70;101233.56;5043879;28;20050;-62
2023/08/15 02:47:29;;;;;;;8.10;2.53;;;;;;;21.90;59.06;101227.56;5024158;28;20050;-62
2023/08/15 02:49:58;;;;;;;7.65;2.90;;;;;;;21.88;58.92;101233.31;5032416;28;20433;-62
2023/08/15 02:52:26;;;;;;;4.90;2.15;;;;;;;21.88;58.98;101236.03;5058781;28;20053;-62
2023/08/15 02:54:54;;;;;;;6.88;2.63;;;;;;;21.86;59.20;101235.53;5044726;28;20077;-62
2023/08/15 02:57:21;;;;;;;7.07;2.63;;;;;;;21.85;59.16;101241.28;5045231;28;20053;-62
2023/08/15 02:59:50;;;;;;;8.80;2.28;;;;;;;21.84;59.36;101250.59;5063643;28;20088;-63
2023/08/15 03:02:17;;;;;;;7.55;2.28;;;;;;;21.82;59.38;101244.59;5063721;28;20079;-63
2023/08/15 03:04:45;;;;;;;6.32;2.35;;;;;;;21.81;59.31;101234.75;5061395;28;20091;-63
2023/08/15 03:07:14;;;;;;;7.93;2.50;;;;;;;21.80;59.45;101244.88;5063681;28;20044;-63
2023/08/15 03:09:42;;;;;;;5.47;2.10;;;;;;;21.79;59.41;101236.94;5055486;28;20078;-63
2023/08/15 03:12:10;;;;;;;5.80;2.10;;;;;;;21.78;59.49;101238.88;5043586;28;20049;-63
2023/08/15 03:14:38;;;;;;;6.75;2.28;;;;;;;21.69;59.37;101227.72;5043344;28;20046;-63
2023/08/15 03:17:07;;;;;;;9.73;2.67;;;;;;;21.75;59.72;101240.25;5043471;28;20046;-62
2023/08/15 03:19:35;;;;;;;9.00;2.72;;;;;;;21.74;59.32;101241.38;5043235;28;20049;-62
2023/08/15 03:22:03;;;;;;;5.93;2.00;;;;;;;21.73;59.51;101236.19;5043510;28;20053;-62
2023/08/15 03:24:32;;;;;;;6.70;2.42;;;;;;;21.71;59.62;101231.00;5043282;28;20065;-63
2023/08/15 03:27:00;;;;;;;5.90;2.58;;;;;;;21.69;59.67;101238.69;5058646;27;20492;-63
2023/08/15 03:29:31;;;;;;;5.28;2.40;;;;;;;21.69;59.80;101240.59;5119257;27;20052;-63
2023/08/15 03:31:59;;;;;;;8.18;2.25;;;;;;;21.69;59.80;101248.81;5050658;28;20053;-63
2023/08/15 03:34:27;;;;;;;10.10;2.40;;;;;;;21.68;59.78;101244.44;5054746;28;20049;-62
2023/08/15 03:36:54;;;;;;;11.23;3.42;;;;;;;21.65;59.62;101237.63;5072266;27;20050;-62
2023/08/15 03:39:22;;;;;;;5.60;2.20;;;;;;;21.66;59.81;101250.19;5091545;27;20413;-62
2023/08/15 03:41:51;;;;;;;8.20;2.42;;;;;;;21.64;59.92;101246.94;5063199;28;20049;-63
2023/08/15 03:44:19;;;;;;;7.13;2.38;;;;;;;21.63;59.99;101253.50;5061533;28;20052;-62
2023/08/15 03:46:47;;;;;;;8.15;2.08;;;;;;;21.62;59.97;101256.53;5063025;28;20041;-62
2023/08/15 03:49:15;;;;;;;7.43;2.40;;;;;;;21.61;60.02;101258.44;5059775;28;20056;-62
2023/08/15 03:51:43;;;;;;;6.45;2.38;;;;;;;21.49;60.02;101244.31;5055233;28;20056;-62
2023/08/15 03:54:14;;;;;;;6.72;2.38;;;;;;;21.59;60.06;101259.81;5052325;28;20132;-62
2023/08/15 03:56:42;;;;;;;8.25;2.10;;;;;;;21.59;60.09;101259.81;5062857;28;20045;-62
2023/08/15 03:59:11;;;;;;;6.05;1.95;;;;;;;21.57;60.19;101256.56;5062789;27;20060;-62
2023/08/15 04:01:39;;;;;;;7.47;2.28;;;;;;;21.57;60.11;101256.56;5061432;28;20070;-63
2023/08/15 04:04:07;;;;;;;6.20;2.20;;;;;;;21.54;60.05;101254.41;5062878;28;20053;-62
2023/08/15 04:06:35;;;;;;;10.10;3.00;;;;;;;21.53;60.18;101250.84;5043992;28;20052;-62
2023/08/15 04:09:03;;;;;;;9.27;2.35;;;;;;;21.51;60.26;101258.50;5054613;28;20078;-63
2023/08/15 04:11:31;;;;;;;5.78;1.85;;;;;;;21.49;60.22;101255.25;5062733;28;20454;-63
2023/08/15 04:13:59;;;;;;;9.60;2.65;;;;;;;21.49;60.17;101252.50;5062458;27;20052;-63
2023/08/15 04:16:28;;;;;;;6.35;2.25;;;;;;;21.47;60.21;101243.78;5062454;28;20045;-63
2023/08/15 04:18:56;;;;;;;4.75;2.13;;;;;;;21.46;60.33;101233.94;5046436;28;20081;-63
2023/08/15 04:21:24;;;;;;;7.57;2.33;;;;;;;21.43;60.18;101238.06;5042874;28;20548;-63
2023/08/15 04:23:51;;;;;;;7.60;2.60;;;;;;;21.41;60.38;101248.47;5052547;28;20106;-63
2023/08/15 04:26:19;;;;;;;8.40;2.53;;;;;;;21.41;60.31;101244.91;5045823;28;20049;-62
2023/08/15 04:28:47;;;;;;;4.88;2.25;;;;;;;21.40;60.31;101259.69;5043977;28;20049;-62
2023/08/15 04:31:15;;;;;;;7.70;2.63;;;;;;;21.38;60.44;101261.88;5041768;28;20053;-62
2023/08/15 04:33:44;;;;;;;8.55;2.90;;;;;;;21.37;60.39;101257.53;5052372;28;20053;-63
2023/08/15 04:36:12;;;;;;;4.10;1.77;;;;;;;21.36;60.55;101266.81;5060911;28;20060;-63
2023/08/15 04:38:40;;;;;;;6.97;2.35;;;;;;;21.34;60.58;101264.38;5022485;28;20056;-63
2023/08/15 04:41:08;;;;;;;6.82;2.65;;;;;;;21.31;60.40;101262.22;5024157;28;20080;-62
2023/08/15 04:43:35;;;;;;;9.55;2.38;;;;;;;21.30;60.56;101271.50;5030265;28;20109;-62
2023/08/15 04:46:03;;;;;;;7.68;2.50;;;;;;;21.29;60.64;101269.06;5065810;28;20551;-62
2023/08/15 04:48:31;;;;;;;6.75;2.08;;;;;;;21.27;60.49;101272.06;5053612;28;20049;-62
2023/08/15 04:51:00;;;;;;;6.03;1.83;;;;;;;21.26;60.61;101295.03;5045798;28;20053;-63
2023/08/15 04:53:28;;;;;;;6.50;2.30;;;;;;;21.25;60.67;101295.31;5038526;28;20141;-63
2023/08/15 04:55:56;;;;;;;6.63;2.38;;;;;;;21.23;60.68;101300.25;5062092;28;20102;-62
2023/08/15 04:58:23;;;;;;;6.43;2.03;;;;;;;21.22;60.64;101310.38;5065594;28;20056;-63
2023/08/15 05:00:51;;;;;;;8.40;2.88;;;;;;;21.22;60.57;101317.75;5065692;28;20101;-62
2023/08/15 05:03:19;;;;;;;7.75;2.38;;;;;;;21.19;60.67;101310.91;5063975;28;20052;-62
2023/08/15 05:05:48;;;;;;;6.82;2.22;;;;;;;21.18;60.71;101309.28;5051985;28;20049;-63
2023/08/15 05:08:17;;;;;;;8.25;2.70;;;;;;;21.16;60.74;101308.75;5045517;28;20057;-63
2023/08/15 05:10:45;;;;;;;6.72;2.22;;;;;;;21.16;60.72;101318.84;5045111;28;20078;-63
2023/08/15 05:13:12;;;;;;;11.27;3.30;;;;;;;21.13;60.64;101321.06;5055161;28;20474;-63
2023/08/15 05:15:40;;;;;;;7.35;2.08;;;;;;;21.13;60.74;101336.63;5065199;28;20077;-64
2023/08/15 05:18:08;;;;;;;4.03;2.25;;;;;;;21.12;60.82;101340.47;5063413;28;20083;-63
2023/08/15 05:20:36;;;;;;;6.50;2.58;;;;;;;21.10;60.78;101345.41;5065236;28;20045;-62
2023/08/15 05:23:04;;;;;;;7.35;2.53;;;;;;;21.09;60.84;101357.44;5062127;28;20046;-61
2023/08/15 05:25:33;;;;;;;10.02;2.65;;;;;;;21.08;60.90;101351.13;5044865;28;20110;-63
2023/08/15 05:28:03;;;;;;;6.75;2.55;;;;;;;21.05;61.05;101348.16;5108701;27;20112;-62
2023/08/15 05:30:32;;;;;;;6.43;2.08;;;;;;;21.06;60.99;101360.72;5127353;27;20052;-62
2023/08/15 05:33:00;;;;;;;6.97;2.55;;;;;;;21.04;60.91;101361.00;5065115;28;20055;-62
2023/08/15 05:35:28;;;;;;;9.30;2.90;;;;;;;21.04;61.15;101361.00;5063680;28;20049;-63
2023/08/15 05:37:56;;;;;;;7.80;2.25;;;;;;;21.04;61.08;101358.25;5124195;27;20442;-63
2023/08/15 05:40:23;;;;;;;7.07;2.72;;;;;;;21.03;60.93;101356.63;5149526;27;20115;-62
2023/08/15 05:42:53;;;;;;;7.00;2.05;;;;;;;21.03;60.95;101353.06;5149632;27;20069;-62
2023/08/15 05:45:20;;;;;;;4.60;2.05;;;;;;;21.03;61.05;101356.63;5075277;27;20479;-63
2023/08/15 05:47:48;;;;;;;8.73;2.55;;;;;;;21.03;60.99;101355.81;5064875;28;20068;-62
2023/08/15 05:50:16;;;;;;;6.78;2.63;;;;;;;21.03;60.89;101366.75;5047742;28;20052;-62
2023/08/15 05:52:44;;;;;;;10.23;2.00;;;;;;;21.03;60.96;101366.75;5051106;28;20045;-62
2023/08/15 05:55:12;;;;;;;6.35;1.83;;;;;;;21.03;60.99;101370.28;5044238;28;20050;-62
2023/08/15 05:57:40;;;;;;;8.15;2.47;;;;;;;21.04;61.12;101379.31;5044775;28;20050;-62
2023/08/15 06:00:11;;;;;;;7.00;3.05;;;;;;;21.03;61.05;101369.47;5054471;28;20502;-62
2023/08/15 06:02:40;;;;;;;6.15;2.38;;;;;;;21.03;61.10;101374.94;5064643;28;20105;-62
2023/08/15 06:05:08;;;;;;;7.45;2.30;;;;;;;21.04;61.06;101376.56;5049329;28;20455;-62
2023/08/15 06:07:36;;;;;;;4.13;1.98;;;;;;;21.05;61.04;101380.94;5044702;28;20109;-62
2023/08/15 06:10:04;;;;;;;5.82;2.20;;;;;;;21.08;61.02;101383.13;5044015;28;20080;-62
2023/08/15 06:12:32;;;;;;;4.30;1.95;;;;;;;21.10;61.00;101392.69;5047117;28;20049;-62
2023/08/15 06:15:00;;;;;;;5.97;2.00;;;;;;;21.13;61.00;101396.78;5064248;27;20053;-63
2023/08/15 06:17:29;;;;;;;6.80;2.22;;;;;;;21.16;61.07;101389.94;5064320;28;20045;-62
2023/08/15 06:19:57;;;;;;;6.85;2.15;;;;;;;21.18;60.97;101396.75;5057225;28;20046;-62
2023/08/15 06:22:25;;;;;;;7.30;1.92;;;;;;;21.20;61.16;101391.00;5044519;28;20049;-62
2023/08/15 06:24:53;;;;;;;7.38;2.00;;;;;;;21.23;61.15;101396.75;5044017;28;20506;-62
2023/08/15 06:27:21;;;;;;;8.68;3.05;;;;;;;21.26;61.09;101395.38;5074872;27;20069;-62
2023/08/15 06:29:49;;;;;;;6.90;2.40;;;;;;;21.22;61.05;101388.84;5045075;28;20132;-62
2023/08/15 06:32:27;;;;;;;11.85;3.28;;;;;;;21.25;61.03;101391.84;5044309;28;20045;-62
2023/08/15 06:34:56;;;;;;;5.10;2.65;;;;;;;21.24;60.99;101395.66;5024581;28;20054;-62
2023/08/15 06:37:24;;;;;;;6.90;2.20;;;;;;;21.23;60.98;101404.16;5094211;27;20058;-62
2023/08/15 06:39:52;;;;;;;5.80;2.53;;;;;;;21.21;61.00;101398.94;5148012;27;20047;-63
2023/08/15 06:42:19;;;;;;;5.68;1.80;;;;;;;21.19;61.07;101403.84;5148541;27;20047;-63
2023/08/15 06:44:47;;;;;;;7.63;2.72;;;;;;;21.18;61.07;101404.13;5133007;27;20563;-63
2023/08/15 06:47:15;;;;;;;8.73;2.80;;;;;;;21.15;61.23;101404.69;5044172;28;20057;-63
2023/08/15 06:49:43;;;;;;;6.90;2.67;;;;;;;21.12;61.35;101400.59;5046135;28;20099;-62
2023/08/15 06:52:12;;;;;;;6.55;2.40;;;;;;;21.10;61.47;101400.88;5043940;28;20086;-62
2023/08/15 06:54:40;;;;;;;5.53;2.38;;;;;;;21.10;61.53;101411.00;5042460;28;20050;-62
2023/08/15 06:57:08;;;;;;;7.53;2.13;;;;;;;21.06;61.58;101402.53;5044020;28;20073;-62
2023/08/15 06:59:36;;;;;;;8.43;3.03;;;;;;;21.07;61.54;101411.56;5043582;28;20414;-61
2023/08/15 07:02:05;;;;;;;7.10;2.30;;;;;;;21.05;61.69;101409.09;5061212;28;20084;-62
2023/08/15 07:04:36;;;;;;;10.05;2.80;;;;;;;21.05;61.87;101409.09;5052732;28;20551;-62
2023/08/15 07:07:04;;;;;;;8.05;2.53;;;;;;;21.04;61.60;101415.66;5043967;28;20050;-62
2023/08/15 07:09:35;;;;;;;10.85;2.28;;;;;;;21.05;61.76;101413.75;5048049;27;20045;-62
2023/08/15 07:12:04;;;;;;;8.63;2.95;;;;;;;21.04;61.80;101415.66;5063688;28;20045;-61
2023/08/15 07:14:32;;;;;;;7.68;2.08;;;;;;;21.06;61.82;101426.31;5060334;28;20177;-61
2023/08/15 07:17:01;;;;;;;6.45;2.15;;;;;;;21.05;61.77;101421.94;5043552;28;20092;-62
2023/08/15 07:19:29;;;;;;;6.25;2.22;;;;;;;21.04;61.89;101421.13;5042663;28;20060;-62
2023/08/15 07:21:57;;;;;;;6.57;1.75;;;;;;;21.05;61.92;101441.06;5043417;28;20053;-63
2023/08/15 07:24:25;;;;;;;8.18;2.35;;;;;;;21.06;61.97;101439.97;5042690;28;20049;-61
2023/08/15 07:26:54;;;;;;;4.55;2.03;;;;;;;21.06;62.00;101431.78;5045528;28;20054;-62
2023/08/15 07:29:22;;;;;;;5.80;2.30;;;;;;;21.06;61.92;101431.78;5063208;28;20098;-61
2023/08/15 07:31:50;;;;;;;7.25;1.80;;;;;;;21.06;62.00;101434.50;5063576;28;20052;-62
2023/08/15 07:34:18;;;;;;;4.75;2.33;;;;;;;21.06;62.09;101432.59;5107923;27;20079;-62
2023/08/15 07:36:46;;;;;;;6.68;2.42;;;;;;;21.06;62.13;101435.31;5066397;27;20047;-62
2023/08/15 07:39:14;;;;;;;5.53;2.13;;;;;;;21.07;62.10;101445.16;5146953;27;20065;-62
2023/08/15 07:41:42;;;;;;;9.55;2.70;;;;;;;21.07;62.14;101453.38;5147464;27;20100;-62
2023/08/15 07:44:11;;;;;;;11.38;2.60;;;;;;;21.09;62.25;101453.91;5132022;27;20071;-62
2023/08/15 07:46:39;;;;;;;10.70;2.35;;;;;;;21.09;62.16;101447.63;5046598;28;20075;-62
2023/08/15 07:49:07;;;;;;;5.55;2.30;;;;;;;21.09;62.14;101440.25;5042999;28;20053;-62
2023/08/15 07:51:35;;;;;;;9.02;2.70;;;;;;;21.10;62.24;101444.63;5054478;28;20498;-62
2023/08/15 07:54:03;;;;;;;7.80;2.33;;;;;;;21.11;62.08;101445.44;5050501;28;20075;-62
2023/08/15 07:56:33;;;;;;;6.93;2.00;;;;;;;21.12;62.24;101458.00;5042920;28;20057;-62
2023/08/15 07:59:03;;;;;;;8.50;2.83;;;;;;;21.12;62.44;101452.53;5053135;28;20070;-62
2023/08/15 08:01:32;;;;;;;7.90;2.85;;;;;;;21.13;62.45;101455.00;5063005;28;20049;-62
2023/08/15 08:04:00;;;;;;;7.70;2.30;;;;;;;21.13;62.37;101457.72;5061432;28;20113;-62
2023/08/15 08:06:28;;;;;;;7.97;2.90;;;;;;;21.13;62.49;101457.72;5045309;28;20054;-62
2023/08/15 08:08:59;;;;;;;7.55;2.38;;;;;;;21.15;62.49;101470.28;5051044;28;20077;-63
2023/08/15 08:11:27;;;;;;;5.32;2.13;;;;;;;21.15;62.48;101454.72;5062355;28;20364;-63
2023/08/15 08:13:55;;;;;;;7.05;2.95;;;;;;;21.15;62.70;101451.97;5043864;28;20049;-62
2023/08/15 08:16:22;;;;;;;7.70;2.47;;;;;;;21.16;62.35;101458.25;5042389;28;20053;-62
2023/08/15 08:18:51;;;;;;;9.23;2.72;;;;;;;21.16;62.57;101463.72;5042445;28;20046;-63
2023/08/15 08:21:19;;;;;;;8.23;2.45;;;;;;;21.17;62.57;101465.38;5042741;28;20075;-63
2023/08/15 08:23:47;;;;;;;9.07;3.05;;;;;;;21.18;62.50;101462.34;5042478;28;20055;-63
2023/08/15 08:26:15;;;;;;;7.72;2.85;;;;;;;21.18;62.56;101456.91;5041995;28;20061;-64
2023/08/15 08:28:43;;;;;;;8.68;2.70;;;;;;;21.19;62.68;101457.72;5131848;28;20051;-62
2023/08/15 08:31:10;;;;;;;7.47;2.33;;;;;;;21.18;62.59;101461.53;5146862;27;20047;-62
2023/08/15 08:33:39;;;;;;;9.35;2.40;;;;;;;21.19;62.73;101460.44;5098094;28;20116;-62
2023/08/15 08:36:08;;;;;;;7.78;2.33;;;;;;;21.19;62.61;101454.97;5042654;28;20050;-62
2023/08/15 08:38:36;;;;;;;7.13;2.55;;;;;;;21.18;62.67;101451.44;5143658;28;20068;-62
2023/08/15 08:41:04;;;;;;;5.00;2.58;;;;;;;21.20;62.61;101460.16;5138505;28;20387;-62
2023/08/15 08:43:33;;;;;;;4.85;2.00;;;;;;;21.21;62.69;101461.81;5062295;28;20049;-63
2023/08/15 08:46:04;;;;;;;7.47;2.63;;;;;;;21.21;62.71;101460.97;5059159;28;20140;-63
2023/08/15 08:48:33;;;;;;;4.32;2.20;;;;;;;21.22;62.76;101457.19;5062020;28;20052;-62
2023/08/15 08:51:04;;;;;;;6.13;1.92;;;;;;;21.23;62.68;101456.09;5053494;28;20502;-63
2023/08/15 08:53:34;;;;;;;6.00;2.70;;;;;;;21.24;62.64;101466.75;5054142;28;20097;-62
2023/08/15 08:56:02;;;;;;;8.18;2.35;;;;;;;21.25;62.81;101464.84;5041775;28;20049;-63
2023/08/15 08:58:31;;;;;;;8.95;2.58;;;;;;;21.25;62.99;101465.66;5041932;28;20053;-62
2023/08/15 09:01:02;;;;;;;8.20;2.55;;;;;;;21.25;62.87;101462.91;5042342;28;20049;-62
2023/08/15 09:03:29;;;;;;;8.23;2.35;;;;;;;21.27;62.98;101473.56;5046011;28;20509;-62
2023/08/15 09:05:58;;;;;;;5.78;2.13;;;;;;;21.27;63.04;101468.94;5048651;28;20050;-63
2023/08/15 09:08:26;;;;;;;5.43;2.00;;;;;;;21.29;63.01;101477.66;5042174;28;20046;-63
2023/08/15 09:10:55;;;;;;;5.35;1.92;;;;;;;21.29;62.92;101469.47;5046608;28;20397;-62
2023/08/15 09:13:23;;;;;;;5.65;2.33;;;;;;;21.29;63.13;101469.47;5061728;28;20078;-63
2023/08/15 09:15:55;;;;;;;5.95;2.25;;;;;;;21.29;63.27;101474.94;5061810;28;20076;-62
2023/08/15 09:18:23;;;;;;;6.97;2.00;;;;;;;21.30;63.10;101482.03;5049172;28;20075;-62
2023/08/15 09:20:52;;;;;;;7.28;2.10;;;;;;;21.30;63.13;101478.50;5041527;28;20042;-62
2023/08/15 09:23:20;;;;;;;5.10;1.83;;;;;;;21.30;62.98;101490.25;5041808;28;20052;-61
2023/08/15 09:25:49;;;;;;;10.32;2.42;;;;;;;21.31;63.18;101488.31;5040692;28;20057;-62
2023/08/15 09:28:18;;;;;;;7.55;2.55;;;;;;;21.31;63.09;101496.53;5050931;28;20053;-62
2023/08/15 09:30:53;;;;;;;8.60;2.08;;;;;;;21.32;63.23;101499.00;5064785;28;20098;-62
2023/08/15 09:33:21;;;;;;;8.32;2.83;;;;;;;21.34;63.22;101501.44;5095546;27;20096;-63
2023/08/15 09:35:49;;;;;;;5.45;1.85;;;;;;;21.36;63.35;101501.97;5054636;27;20050;-63
2023/08/15 09:38:26;;;;;;;6.20;2.50;;;;;;;21.36;63.33;101497.34;5139968;27;20053;-62
2023/08/15 09:40:55;;;;;;;5.07;2.13;;;;;;;21.36;63.28;101502.81;5148830;27;20043;-63
2023/08/15 09:43:25;;;;;;;9.88;2.47;;;;;;;21.38;63.52;101497.88;5059241;28;20074;-62
2023/08/15 09:45:53;;;;;;;9.60;2.58;;;;;;;21.39;63.41;101504.97;5064564;28;20520;-63
2023/08/15 09:48:21;;;;;;;9.05;3.03;;;;;;;21.40;63.50;101503.88;5064858;28;20140;-62
2023/08/15 09:50:49;;;;;;;7.30;2.33;;;;;;;21.41;63.60;101499.25;5052896;28;20041;-62
2023/08/15 09:53:17;;;;;;;8.00;2.55;;;;;;;21.43;63.60;101505.25;5058713;28;20045;-63
2023/08/15 09:55:45;;;;;;;7.75;2.60;;;;;;;21.44;63.63;101515.91;5060719;28;20105;-63
2023/08/15 09:58:13;;;;;;;7.47;2.20;;;;;;;21.46;63.68;101521.09;5064784;28;20056;-62
2023/08/15 10:00:42;;;;;;;6.43;2.15;;;;;;;21.48;63.75;101521.63;5064398;28;20070;-62
2023/08/15 10:03:17;;;;;;;6.82;2.00;;;;;;;21.49;63.71;101528.75;5053382;28;20140;-62
2023/08/15 10:05:53;;;;;;;5.78;2.40;;;;;;;21.52;63.79;101524.63;5044746;28;20045;-63
2023/08/15 10:08:23;;;;;;;6.57;2.65;;;;;;;21.53;63.70;101524.34;5057972;28;20052;-63
2023/08/15 10:10:52;;;;;;;7.32;2.67;;;;;;;21.53;63.76;101527.09;5064002;28;20041;-63
2023/08/15 10:13:23;;;;;;;7.03;2.60;;;;;;;21.56;64.28;101528.44;5064515;28;20045;-63
2023/08/15 10:15:54;;;;;;;6.45;2.22;;;;;;;21.59;64.03;101533.38;5044907;28;20401;-63
2023/08/15 10:18:21;;;;;;;8.48;2.58;;;;;;;21.60;64.03;101526.81;5044295;28;20146;-62
2023/08/15 10:20:51;;;;;;;9.95;2.25;;;;;;;21.62;63.89;101530.06;5044138;28;20072;-62
2023/08/15 10:23:24;;;;;;;8.75;2.05;;;;;;;21.63;64.02;101532.53;5047055;28;20053;-62
2023/08/15 10:25:53;;;;;;;10.02;2.17;;;;;;;21.66;64.09;101540.19;5059331;28;20053;-62
2023/08/15 10:28:23;;;;;;;6.43;2.58;;;;;;;21.69;64.07;101541.53;5120295;27;20055;-62
2023/08/15 10:30:52;;;;;;;8.05;2.40;;;;;;;21.70;63.94;101538.53;5148647;27;20054;-62
2023/08/15 10:33:23;;;;;;;5.03;2.58;;;;;;;21.72;64.03;101550.00;5066731;27;20055;-63
2023/08/15 10:36:06;;;;;;;6.45;2.92;;;;;;;21.75;64.15;101543.16;5064264;28;20049;-62
2023/08/15 10:38:39;;;;;;;9.88;3.17;;;;;;;21.78;64.57;101545.34;5058941;28;20045;-62
2023/08/15 10:41:13;;;;;;;8.55;2.40;;;;;;;21.83;64.69;101545.31;5043589;28;20113;-62
2023/08/15 10:43:47;;;;;;;10.07;3.03;;;;;;;21.87;64.57;101545.56;5043890;28;20077;-62
2023/08/15 10:46:18;;;;;;;8.15;2.42;;;;;;;21.88;64.63;101542.56;5047094;28;20121;-62
2023/08/15 10:48:49;;;;;;;9.32;1.98;;;;;;;21.93;64.80;101536.25;5063663;27;20051;-62
2023/08/15 10:51:22;;;;;;;5.72;2.17;;;;;;;21.95;64.60;101534.03;5041789;28;20045;-63
2023/08/15 10:53:50;;;;;;;7.47;2.30;;;;;;;21.96;64.36;101531.03;5053895;28;20054;-63
2023/08/15 10:56:20;;;;;;;6.18;3.00;;;;;;;21.98;64.14;101537.03;5063562;28;20105;-63
2023/08/15 10:58:47;;;;;;;5.30;2.05;;;;;;;21.97;64.36;101529.94;5063050;28;20127;-62
2023/08/15 11:01:19;;;;;;;7.10;2.30;;;;;;;22.02;64.46;101532.66;5056364;28;20083;-61
2023/08/15 11:03:48;;;;;;;6.40;2.17;;;;;;;22.04;64.57;101540.59;5043770;28;20049;-63
2023/08/15 11:06:16;;;;;;;8.23;3.08;;;;;;;22.07;64.27;101542.78;5048053;28;20477;-62
2023/08/15 11:08:47;;;;;;;6.55;2.50;;;;;;;22.07;64.04;101540.84;5063300;28;20053;-62
2023/08/15 11:11:16;;;;;;;7.38;2.72;;;;;;;22.10;64.11;101531.25;5063311;28;20219;-63
2023/08/15 11:13:45;;;;;;;7.60;2.05;;;;;;;22.12;63.80;101531.78;5045915;28;20201;-63
2023/08/15 11:16:15;;;;;;;9.40;2.40;;;;;;;22.14;64.16;101534.25;5063259;28;20077;-63
2023/08/15 11:18:45;;;;;;;5.28;2.33;;;;;;;22.17;64.25;101545.47;5063365;28;20057;-61
2023/08/15 11:21:15;;;;;;;6.35;2.22;;;;;;;22.21;64.34;101534.75;5053362;28;20037;-62
2023/08/15 11:23:43;;;;;;;13.07;3.22;;;;;;;22.23;64.51;101535.28;5043834;28;20057;-62
2023/08/15 11:26:14;;;;;;;8.77;2.63;;;;;;;22.28;64.31;101535.25;5043072;28;20045;-63
2023/08/15 11:28:42;;;;;;;7.47;2.92;;;;;;;22.33;64.60;101535.22;5132648;27;20064;-63
2023/08/15 11:31:11;;;;;;;7.32;2.45;;;;;;;22.36;64.24;101535.47;5087806;27;20049;-63